LGKR/CFU METAR and TAF weather

Enter ICAO airport designator
Station Type Date Time Source
LGKR METAR 2020/04/05 12:20 UTC NOAA

LGKR 051220Z 14005KT 9999 SCT035 BKN080 17/07 Q1011 NOSIG


Station Type Date Time Source
LGKR Decoded METAR 2020/04/05 12:20 UTC NOAA

Kerkyra Airport , Greece (LGKR) 39-37N 019-55E 4M
Apr 05, 2020 - 08:20 AM EDT / 2020.04.05 1220 UTC
Wind: from the SE (140 degrees) at 6 MPH (5 KT):0
Visibility: greater than 7 mile(s):0
Sky conditions: mostly cloudy
Temperature: 62 F (17 C)
Dew Point: 44 F (7 C)
Relative Humidity: 51%
Pressure (altimeter): 29.85 in. Hg (1011 hPa)
ob: LGKR 051220Z 14005KT 9999 SCT035 BKN080 17/07 Q1011 NOSIG
cycle: 12

Station Type Date Time Source
LGKR TAF 2020/04/05 12:12 UTC NOAA

TAF LGKR 051100Z 0512/0612 33008KT 9999 FEW025 BKN070 PROB30
TEMPO 0512/0515 5000 RA FEW015 BKN025
BECMG 0516/0518 08015KT

Example: see airport list